sensor_id;sensor_type;location;lat;lon;timestamp;P1;P2;P0
32503;PMS5003;18953;45.930;13.640;2023-02-12T00:01:25;72;58;
32503;PMS5003;18953;45.930;13.640;2023-02-12T00:06:42;69;55;
32503;PMS5003;18953;45.930;13.640;2023-02-12T00:11:59;94;70;
32503;PMS5003;18953;45.930;13.640;2023-02-12T00:17:15;77;64;
32503;PMS5003;18953;45.930;13.640;2023-02-12T00:22:32;85;65;
32503;PMS5003;18953;45.930;13.640;2023-02-12T00:27:49;81;64;
32503;PMS5003;18953;45.930;13.640;2023-02-12T00:33:07;77;62;
32503;PMS5003;18953;45.930;13.640;2023-02-12T00:38:23;73;58;
32503;PMS5003;18953;45.930;13.640;2023-02-12T00:43:39;73;59;
32503;PMS5003;18953;45.930;13.640;2023-02-12T00:48:55;75;58;
32503;PMS5003;18953;45.930;13.640;2023-02-12T00:54:13;79;63;
32503;PMS5003;18953;45.930;13.640;2023-02-12T00:59:30;85;65;
32503;PMS5003;18953;45.930;13.640;2023-02-12T01:04:46;64;55;
32503;PMS5003;18953;45.930;13.640;2023-02-12T01:10:04;76;60;
32503;PMS5003;18953;45.930;13.640;2023-02-12T01:15:20;78;59;
32503;PMS5003;18953;45.930;13.640;2023-02-12T01:20:38;112;82;
32503;PMS5003;18953;45.930;13.640;2023-02-12T01:25:53;77;59;
32503;PMS5003;18953;45.930;13.640;2023-02-12T01:31:10;73;55;
32503;PMS5003;18953;45.930;13.640;2023-02-12T01:36:27;70;59;
32503;PMS5003;18953;45.930;13.640;2023-02-12T01:41:43;76;60;
32503;PMS5003;18953;45.930;13.640;2023-02-12T01:47:01;74;59;
32503;PMS5003;18953;45.930;13.640;2023-02-12T01:52:17;74;58;
32503;PMS5003;18953;45.930;13.640;2023-02-12T01:57:33;75;59;
32503;PMS5003;18953;45.930;13.640;2023-02-12T02:02:50;86;63;
32503;PMS5003;18953;45.930;13.640;2023-02-12T02:08:06;69;58;
32503;PMS5003;18953;45.930;13.640;2023-02-12T02:13:22;73;57;
32503;PMS5003;18953;45.930;13.640;2023-02-12T02:18:40;71;56;
32503;PMS5003;18953;45.930;13.640;2023-02-12T02:24:07;62;53;
32503;PMS5003;18953;45.930;13.640;2023-02-12T02:29:18;59;50;
32503;PMS5003;18953;45.930;13.640;2023-02-12T02:34:32;64;51;
32503;PMS5003;18953;45.930;13.640;2023-02-12T02:39:47;65;52;
32503;PMS5003;18953;45.930;13.640;2023-02-12T02:45:03;68;54;
32503;PMS5003;18953;45.930;13.640;2023-02-12T02:50:18;58;50;
32503;PMS5003;18953;45.930;13.640;2023-02-12T02:55:34;70;55;
32503;PMS5003;18953;45.930;13.640;2023-02-12T03:00:52;59;51;
32503;PMS5003;18953;45.930;13.640;2023-02-12T03:06:09;60;50;
32503;PMS5003;18953;45.930;13.640;2023-02-12T03:11:24;64;53;
32503;PMS5003;18953;45.930;13.640;2023-02-12T03:16:42;66;51;
32503;PMS5003;18953;45.930;13.640;2023-02-12T03:21:59;63;51;
32503;PMS5003;18953;45.930;13.640;2023-02-12T03:27:15;66;53;
32503;PMS5003;18953;45.930;13.640;2023-02-12T03:32:32;66;53;
32503;PMS5003;18953;45.930;13.640;2023-02-12T03:37:49;58;51;
32503;PMS5003;18953;45.930;13.640;2023-02-12T03:43:06;71;55;
32503;PMS5003;18953;45.930;13.640;2023-02-12T03:48:21;87;66;
32503;PMS5003;18953;45.930;13.640;2023-02-12T03:53:38;74;57;
32503;PMS5003;18953;45.930;13.640;2023-02-12T03:58:55;93;72;
32503;PMS5003;18953;45.930;13.640;2023-02-12T04:04:12;69;56;
32503;PMS5003;18953;45.930;13.640;2023-02-12T04:09:29;63;51;
32503;PMS5003;18953;45.930;13.640;2023-02-12T04:14:48;61;51;
32503;PMS5003;18953;45.930;13.640;2023-02-12T04:20:04;73;57;
32503;PMS5003;18953;45.930;13.640;2023-02-12T04:25:20;57;48;
32503;PMS5003;18953;45.930;13.640;2023-02-12T04:30:52;58;47;
32503;PMS5003;18953;45.930;13.640;2023-02-12T04:35:54;55;48;
32503;PMS5003;18953;45.930;13.640;2023-02-12T04:41:10;51;46;
32503;PMS5003;18953;45.930;13.640;2023-02-12T04:46:27;64;51;
32503;PMS5003;18953;45.930;13.640;2023-02-12T04:51:44;67;50;
32503;PMS5003;18953;45.930;13.640;2023-02-12T04:57:00;59;50;
32503;PMS5003;18953;45.930;13.640;2023-02-12T05:02:16;59;52;
32503;PMS5003;18953;45.930;13.640;2023-02-12T05:07:33;58;50;
32503;PMS5003;18953;45.930;13.640;2023-02-12T05:12:50;67;54;
32503;PMS5003;18953;45.930;13.640;2023-02-12T05:18:06;57;48;
32503;PMS5003;18953;45.930;13.640;2023-02-12T05:23:24;57;50;
32503;PMS5003;18953;45.930;13.640;2023-02-12T05:28:39;53;45;
32503;PMS5003;18953;45.930;13.640;2023-02-12T05:33:55;43;36;
32503;PMS5003;18953;45.930;13.640;2023-02-12T05:39:12;48;40;
32503;PMS5003;18953;45.930;13.640;2023-02-12T05:44:28;66;53;
32503;PMS5003;18953;45.930;13.640;2023-02-12T05:49:45;54;50;
32503;PMS5003;18953;45.930;13.640;2023-02-12T05:55:01;53;48;
32503;PMS5003;18953;45.930;13.640;2023-02-12T06:00:18;64;52;
32503;PMS5003;18953;45.930;13.640;2023-02-12T06:05:34;63;51;
32503;PMS5003;18953;45.930;13.640;2023-02-12T06:10:51;50;43;
32503;PMS5003;18953;45.930;13.640;2023-02-12T06:16:14;55;48;
32503;PMS5003;18953;45.930;13.640;2023-02-12T06:21:25;64;54;
32503;PMS5003;18953;45.930;13.640;2023-02-12T06:26:53;49;43;
32503;PMS5003;18953;45.930;13.640;2023-02-12T06:32:10;59;52;
32503;PMS5003;18953;45.930;13.640;2023-02-12T06:37:27;54;47;
32503;PMS5003;18953;45.930;13.640;2023-02-12T06:42:44;72;60;
32503;PMS5003;18953;45.930;13.640;2023-02-12T06:48:01;91;70;
32503;PMS5003;18953;45.930;13.640;2023-02-12T06:53:17;91;71;
32503;PMS5003;18953;45.930;13.640;2023-02-12T06:58:34;81;64;
32503;PMS5003;18953;45.930;13.640;2023-02-12T07:03:51;80;62;
32503;PMS5003;18953;45.930;13.640;2023-02-12T07:09:07;76;60;
32503;PMS5003;18953;45.930;13.640;2023-02-12T07:14:24;61;50;
32503;PMS5003;18953;45.930;13.640;2023-02-12T07:19:40;64;52;
32503;PMS5003;18953;45.930;13.640;2023-02-12T07:24:56;57;50;
32503;PMS5003;18953;45.930;13.640;2023-02-12T07:30:14;64;51;
32503;PMS5003;18953;45.930;13.640;2023-02-12T07:35:31;77;61;
32503;PMS5003;18953;45.930;13.640;2023-02-12T07:40:48;82;66;
32503;PMS5003;18953;45.930;13.640;2023-02-12T07:46:05;89;69;
32503;PMS5003;18953;45.930;13.640;2023-02-12T07:51:21;86;68;
32503;PMS5003;18953;45.930;13.640;2023-02-12T07:56:38;90;69;
32503;PMS5003;18953;45.930;13.640;2023-02-12T08:01:53;103;79;
32503;PMS5003;18953;45.930;13.640;2023-02-12T08:07:11;90;70;
32503;PMS5003;18953;45.930;13.640;2023-02-12T08:12:27;86;67;
32503;PMS5003;18953;45.930;13.640;2023-02-12T08:17:44;84;67;
32503;PMS5003;18953;45.930;13.640;2023-02-12T08:23:01;96;73;
32503;PMS5003;18953;45.930;13.640;2023-02-12T08:28:17;101;80;
32503;PMS5003;18953;45.930;13.640;2023-02-12T08:33:34;94;72;
32503;PMS5003;18953;45.930;13.640;2023-02-12T08:38:52;104;79;
32503;PMS5003;18953;45.930;13.640;2023-02-12T08:44:08;88;70;
32503;PMS5003;18953;45.930;13.640;2023-02-12T08:49:26;87;70;
32503;PMS5003;18953;45.930;13.640;2023-02-12T08:54:41;88;68;
32503;PMS5003;18953;45.930;13.640;2023-02-12T08:59:58;92;72;
32503;PMS5003;18953;45.930;13.640;2023-02-12T09:05:14;81;62;
32503;PMS5003;18953;45.930;13.640;2023-02-12T09:10:31;85;66;
32503;PMS5003;18953;45.930;13.640;2023-02-12T09:15:47;74;60;
32503;PMS5003;18953;45.930;13.640;2023-02-12T09:21:05;78;63;
32503;PMS5003;18953;45.930;13.640;2023-02-12T09:26:22;88;67;
32503;PMS5003;18953;45.930;13.640;2023-02-12T09:31:38;66;54;
32503;PMS5003;18953;45.930;13.640;2023-02-12T09:36:55;84;66;
32503;PMS5003;18953;45.930;13.640;2023-02-12T09:42:16;88;68;
32503;PMS5003;18953;45.930;13.640;2023-02-12T09:47:31;85;67;
32503;PMS5003;18953;45.930;13.640;2023-02-12T09:52:47;79;63;
32503;PMS5003;18953;45.930;13.640;2023-02-12T09:58:06;85;63;
32503;PMS5003;18953;45.930;13.640;2023-02-12T10:03:20;85;65;
32503;PMS5003;18953;45.930;13.640;2023-02-12T10:08:41;82;64;
32503;PMS5003;18953;45.930;13.640;2023-02-12T10:13:56;84;63;
32503;PMS5003;18953;45.930;13.640;2023-02-12T10:19:14;82;64;
32503;PMS5003;18953;45.930;13.640;2023-02-12T10:24:33;65;52;
32503;PMS5003;18953;45.930;13.640;2023-02-12T10:29:44;61;50;
32503;PMS5003;18953;45.930;13.640;2023-02-12T10:35:00;51;43;
32503;PMS5003;18953;45.930;13.640;2023-02-12T10:40:17;56;44;
32503;PMS5003;18953;45.930;13.640;2023-02-12T10:45:33;49;38;
32503;PMS5003;18953;45.930;13.640;2023-02-12T10:50:51;35;31;
32503;PMS5003;18953;45.930;13.640;2023-02-12T10:56:11;27;25;
32503;PMS5003;18953;45.930;13.640;2023-02-12T11:01:23;20;18;
32503;PMS5003;18953;45.930;13.640;2023-02-12T11:06:38;18;18;
32503;PMS5003;18953;45.930;13.640;2023-02-12T11:11:54;19;17;
32503;PMS5003;18953;45.930;13.640;2023-02-12T11:17:22;21;19;
32503;PMS5003;18953;45.930;13.640;2023-02-12T11:22:28;19;17;
32503;PMS5003;18953;45.930;13.640;2023-02-12T11:27:44;32;28;
32503;PMS5003;18953;45.930;13.640;2023-02-12T11:33:13;23;21;
32503;PMS5003;18953;45.930;13.640;2023-02-12T11:38:19;18;17;
32503;PMS5003;18953;45.930;13.640;2023-02-12T11:43:34;18;15;
32503;PMS5003;18953;45.930;13.640;2023-02-12T11:48:50;17;14;
32503;PMS5003;18953;45.930;13.640;2023-02-12T11:54:14;18;16;
32503;PMS5003;18953;45.930;13.640;2023-02-12T11:59:29;16;15;
32503;PMS5003;18953;45.930;13.640;2023-02-12T12:04:39;30;25;
32503;PMS5003;18953;45.930;13.640;2023-02-12T12:09:56;20;19;
32503;PMS5003;18953;45.930;13.640;2023-02-12T12:15:14;19;17;
32503;PMS5003;18953;45.930;13.640;2023-02-12T12:20:29;13;13;
32503;PMS5003;18953;45.930;13.640;2023-02-12T12:25:45;18;16;
32503;PMS5003;18953;45.930;13.640;2023-02-12T12:31:02;15;14;
32503;PMS5003;18953;45.930;13.640;2023-02-12T12:36:54;12;11;
32503;PMS5003;18953;45.930;13.640;2023-02-12T12:41:35;16;16;
32503;PMS5003;18953;45.930;13.640;2023-02-12T12:46:53;19;18;
32503;PMS5003;18953;45.930;13.640;2023-02-12T12:52:11;10;10;
32503;PMS5003;18953;45.930;13.640;2023-02-12T12:57:26;13;12;
32503;PMS5003;18953;45.930;13.640;2023-02-12T13:02:44;20;18;
32503;PMS5003;18953;45.930;13.640;2023-02-12T13:07:57;16;14;
32503;PMS5003;18953;45.930;13.640;2023-02-12T13:13:14;23;20;
32503;PMS5003;18953;45.930;13.640;2023-02-12T13:18:31;26;24;
32503;PMS5003;18953;45.930;13.640;2023-02-12T13:23:45;26;22;
32503;PMS5003;18953;45.930;13.640;2023-02-12T13:29:01;23;21;
32503;PMS5003;18953;45.930;13.640;2023-02-12T13:34:17;25;22;
32503;PMS5003;18953;45.930;13.640;2023-02-12T13:39:33;22;20;
32503;PMS5003;18953;45.930;13.640;2023-02-12T13:44:51;22;20;
32503;PMS5003;18953;45.930;13.640;2023-02-12T13:50:07;23;21;
32503;PMS5003;18953;45.930;13.640;2023-02-12T13:55:22;22;20;
32503;PMS5003;18953;45.930;13.640;2023-02-12T14:00:55;28;26;
32503;PMS5003;18953;45.930;13.640;2023-02-12T14:06:10;32;28;
32503;PMS5003;18953;45.930;13.640;2023-02-12T14:11:12;30;28;
32503;PMS5003;18953;45.930;13.640;2023-02-12T14:16:37;26;26;
32503;PMS5003;18953;45.930;13.640;2023-02-12T14:21:44;25;23;
32503;PMS5003;18953;45.930;13.640;2023-02-12T14:27:01;27;26;
32503;PMS5003;18953;45.930;13.640;2023-02-12T14:32:45;23;21;
32503;PMS5003;18953;45.930;13.640;2023-02-12T14:37:34;30;27;
32503;PMS5003;18953;45.930;13.640;2023-02-12T14:42:54;26;24;
32503;PMS5003;18953;45.930;13.640;2023-02-12T14:48:07;25;22;
32503;PMS5003;18953;45.930;13.640;2023-02-12T14:53:24;25;23;
32503;PMS5003;18953;45.930;13.640;2023-02-12T14:58:39;27;25;
32503;PMS5003;18953;45.930;13.640;2023-02-12T15:03:55;28;25;
32503;PMS5003;18953;45.930;13.640;2023-02-12T15:09:14;27;24;
32503;PMS5003;18953;45.930;13.640;2023-02-12T15:14:29;24;22;
32503;PMS5003;18953;45.930;13.640;2023-02-12T15:19:47;27;23;
32503;PMS5003;18953;45.930;13.640;2023-02-12T15:25:19;26;24;
32503;PMS5003;18953;45.930;13.640;2023-02-12T15:30:19;40;36;
32503;PMS5003;18953;45.930;13.640;2023-02-12T15:35:35;28;25;
32503;PMS5003;18953;45.930;13.640;2023-02-12T15:40:52;30;27;
32503;PMS5003;18953;45.930;13.640;2023-02-12T15:46:13;34;30;
32503;PMS5003;18953;45.930;13.640;2023-02-12T15:51:25;28;27;
32503;PMS5003;18953;45.930;13.640;2023-02-12T15:56:40;27;24;
32503;PMS5003;18953;45.930;13.640;2023-02-12T16:01:57;32;29;
32503;PMS5003;18953;45.930;13.640;2023-02-12T16:07:13;41;34;
32503;PMS5003;18953;45.930;13.640;2023-02-12T16:12:30;34;31;
32503;PMS5003;18953;45.930;13.640;2023-02-12T16:17:46;35;31;
32503;PMS5003;18953;45.930;13.640;2023-02-12T16:23:04;36;32;
32503;PMS5003;18953;45.930;13.640;2023-02-12T16:28:20;32;31;
32503;PMS5003;18953;45.930;13.640;2023-02-12T16:33:40;33;30;
32503;PMS5003;18953;45.930;13.640;2023-02-12T16:38:52;69;53;
32503;PMS5003;18953;45.930;13.640;2023-02-12T16:44:24;72;56;
32503;PMS5003;18953;45.930;13.640;2023-02-12T16:49:25;57;46;
32503;PMS5003;18953;45.930;13.640;2023-02-12T16:54:41;61;49;
32503;PMS5003;18953;45.930;13.640;2023-02-12T16:59:58;58;48;
32503;PMS5003;18953;45.930;13.640;2023-02-12T17:05:15;60;48;
32503;PMS5003;18953;45.930;13.640;2023-02-12T17:10:30;87;70;
32503;PMS5003;18953;45.930;13.640;2023-02-12T17:15:48;76;59;
32503;PMS5003;18953;45.930;13.640;2023-02-12T17:21:05;55;45;
32503;PMS5003;18953;45.930;13.640;2023-02-12T17:26:21;70;55;
32503;PMS5003;18953;45.930;13.640;2023-02-12T17:31:38;89;71;
32503;PMS5003;18953;45.930;13.640;2023-02-12T17:36:55;95;77;
32503;PMS5003;18953;45.930;13.640;2023-02-12T17:42:12;96;81;
32503;PMS5003;18953;45.930;13.640;2023-02-12T17:47:29;84;65;
32503;PMS5003;18953;45.930;13.640;2023-02-12T17:52:45;70;56;
32503;PMS5003;18953;45.930;13.640;2023-02-12T17:58:02;70;54;
32503;PMS5003;18953;45.930;13.640;2023-02-12T18:03:18;60;49;
32503;PMS5003;18953;45.930;13.640;2023-02-12T18:08:35;56;45;
32503;PMS5003;18953;45.930;13.640;2023-02-12T18:13:51;65;52;
32503;PMS5003;18953;45.930;13.640;2023-02-12T18:19:08;65;51;
32503;PMS5003;18953;45.930;13.640;2023-02-12T18:24:25;79;61;
32503;PMS5003;18953;45.930;13.640;2023-02-12T18:29:42;88;66;
32503;PMS5003;18953;45.930;13.640;2023-02-12T18:34:58;69;55;
32503;PMS5003;18953;45.930;13.640;2023-02-12T18:40:16;70;54;
32503;PMS5003;18953;45.930;13.640;2023-02-12T18:45:32;80;61;
32503;PMS5003;18953;45.930;13.640;2023-02-12T18:50:49;72;57;
32503;PMS5003;18953;45.930;13.640;2023-02-12T18:56:07;80;62;
32503;PMS5003;18953;45.930;13.640;2023-02-12T19:01:23;87;68;
32503;PMS5003;18953;45.930;13.640;2023-02-12T19:06:42;102;86;
32503;PMS5003;18953;45.930;13.640;2023-02-12T19:11:57;85;67;
32503;PMS5003;18953;45.930;13.640;2023-02-12T19:17:12;91;69;
32503;PMS5003;18953;45.930;13.640;2023-02-12T19:22:29;82;65;
32503;PMS5003;18953;45.930;13.640;2023-02-12T19:27:45;91;69;
32503;PMS5003;18953;45.930;13.640;2023-02-12T19:33:02;75;60;
32503;PMS5003;18953;45.930;13.640;2023-02-12T19:38:19;87;68;
32503;PMS5003;18953;45.930;13.640;2023-02-12T19:43:36;91;71;
32503;PMS5003;18953;45.930;13.640;2023-02-12T19:48:53;100;81;
32503;PMS5003;18953;45.930;13.640;2023-02-12T19:54:11;79;61;
32503;PMS5003;18953;45.930;13.640;2023-02-12T19:59:27;90;69;
32503;PMS5003;18953;45.930;13.640;2023-02-12T20:04:43;73;59;
32503;PMS5003;18953;45.930;13.640;2023-02-12T20:10:00;84;67;
32503;PMS5003;18953;45.930;13.640;2023-02-12T20:15:17;78;60;
32503;PMS5003;18953;45.930;13.640;2023-02-12T20:20:33;64;51;
32503;PMS5003;18953;45.930;13.640;2023-02-12T20:25:50;61;50;
32503;PMS5003;18953;45.930;13.640;2023-02-12T20:31:07;60;50;
32503;PMS5003;18953;45.930;13.640;2023-02-12T20:36:23;49;42;
32503;PMS5003;18953;45.930;13.640;2023-02-12T20:41:39;60;50;
32503;PMS5003;18953;45.930;13.640;2023-02-12T20:46:55;45;42;
32503;PMS5003;18953;45.930;13.640;2023-02-12T20:52:12;55;45;
32503;PMS5003;18953;45.930;13.640;2023-02-12T20:57:28;60;50;
32503;PMS5003;18953;45.930;13.640;2023-02-12T21:02:44;54;46;
32503;PMS5003;18953;45.930;13.640;2023-02-12T21:08:01;50;45;
32503;PMS5003;18953;45.930;13.640;2023-02-12T21:13:18;52;45;
32503;PMS5003;18953;45.930;13.640;2023-02-12T21:18:34;48;42;
32503;PMS5003;18953;45.930;13.640;2023-02-12T21:23:51;65;54;
32503;PMS5003;18953;45.930;13.640;2023-02-12T21:29:07;66;54;
32503;PMS5003;18953;45.930;13.640;2023-02-12T21:34:24;44;39;
32503;PMS5003;18953;45.930;13.640;2023-02-12T21:39:40;51;42;
32503;PMS5003;18953;45.930;13.640;2023-02-12T21:44:57;45;41;
32503;PMS5003;18953;45.930;13.640;2023-02-12T21:50:14;51;44;
32503;PMS5003;18953;45.930;13.640;2023-02-12T21:55:30;70;57;
32503;PMS5003;18953;45.930;13.640;2023-02-12T22:00:46;51;46;
32503;PMS5003;18953;45.930;13.640;2023-02-12T22:06:04;48;42;
32503;PMS5003;18953;45.930;13.640;2023-02-12T22:11:20;48;44;
32503;PMS5003;18953;45.930;13.640;2023-02-12T22:16:36;50;41;
32503;PMS5003;18953;45.930;13.640;2023-02-12T22:21:53;44;38;
32503;PMS5003;18953;45.930;13.640;2023-02-12T22:27:10;72;59;
32503;PMS5003;18953;45.930;13.640;2023-02-12T22:32:27;68;53;
32503;PMS5003;18953;45.930;13.640;2023-02-12T22:37:43;63;47;
32503;PMS5003;18953;45.930;13.640;2023-02-12T22:43:00;64;49;
32503;PMS5003;18953;45.930;13.640;2023-02-12T22:48:17;52;44;
32503;PMS5003;18953;45.930;13.640;2023-02-12T22:53:33;67;49;
32503;PMS5003;18953;45.930;13.640;2023-02-12T22:58:52;56;47;
32503;PMS5003;18953;45.930;13.640;2023-02-12T23:04:06;41;38;
32503;PMS5003;18953;45.930;13.640;2023-02-12T23:09:22;42;36;
32503;PMS5003;18953;45.930;13.640;2023-02-12T23:14:39;28;26;
32503;PMS5003;18953;45.930;13.640;2023-02-12T23:19:55;16;15;
32503;PMS5003;18953;45.930;13.640;2023-02-12T23:25:12;21;18;
32503;PMS5003;18953;45.930;13.640;2023-02-12T23:30:28;19;18;
32503;PMS5003;18953;45.930;13.640;2023-02-12T23:35:45;15;14;
32503;PMS5003;18953;45.930;13.640;2023-02-12T23:41:01;12;11;
32503;PMS5003;18953;45.930;13.640;2023-02-12T23:46:18;19;17;
32503;PMS5003;18953;45.930;13.640;2023-02-12T23:51:34;12;12;
32503;PMS5003;18953;45.930;13.640;2023-02-12T23:56:51;15;11;
